Terminal Aerodrome Forecast
Issued by NWS Portland, ME

Home | Current Version | Previous Version | Text Only | Print | Product List | Glossary On
Versions: 1 2 3 4 5 6 7 8 9 10 11 12 13 14 15 16 17
000
FTUS41 KGYX 111120
TAFPWM
TAF
KPWM 111120Z 1112/1212 28013KT P6SM SCT250
     FM112200 29007KT P6SM SCT250
     FM120500 06007KT P6SM BKN090=

USA.gov is the U.S. government's official web portal to all federal, state and local government web resources and services.